Time;durP1;ratioP1;P1;durP2;ratioP2;P2;SDS_P1;SDS_P2;PMS_P1;PMS_P2;Temp;Humidity;BMP_temperature;BMP_pressure;BME280_temperature;BME280_humidity;BME280_pressure;Samples;Min_cycle;Max_cycle;Signal;HPM_P1;HPM_P2
2022/03/27 00:00:05;;;;;;;6.13;3.80;;;;;;;;;;5304706;28;20523;-68
2022/03/27 00:02:37;;;;;;;9.27;4.55;;;;;;;;;;5304938;28;20032;-68
2022/03/27 00:05:12;;;;;;;6.15;3.97;;;;;;;;;;5304389;28;20020;-69
2022/03/27 00:07:43;;;;;;;6.18;4.40;;;;;;;;;;5305178;28;20356;-69
2022/03/27 00:10:14;;;;;;;7.75;4.78;;;;;;;;;;5304882;28;20149;-68
2022/03/27 00:12:45;;;;;;;8.15;3.05;;;;;;;;;;5303858;28;20016;-68
2022/03/27 00:15:17;;;;;;;6.72;4.10;;;;;;;;;;5304979;28;20055;-68
2022/03/27 00:17:48;;;;;;;7.57;4.25;;;;;;;;;;5304790;28;20020;-68
2022/03/27 00:20:19;;;;;;;5.90;3.42;;;;;;;;;;5304460;28;20012;-68
2022/03/27 00:22:50;;;;;;;7.13;4.45;;;;;;;;;;5304473;28;20101;-68
2022/03/27 00:25:22;;;;;;;12.90;6.70;;;;;;;;;;5304934;28;20616;-68
2022/03/27 00:27:53;;;;;;;6.35;4.57;;;;;;;;;;5303563;28;20364;-68
2022/03/27 00:30:24;;;;;;;7.57;4.10;;;;;;;;;;5305005;28;20290;-68
2022/03/27 00:32:55;;;;;;;6.04;4.32;;;;;;;;;;5303663;28;20280;-68
2022/03/27 00:35:26;;;;;;;6.70;4.28;;;;;;;;;;5304809;28;20381;-68
2022/03/27 00:37:57;;;;;;;12.32;5.55;;;;;;;;;;5304242;28;20275;-68
2022/03/27 00:40:28;;;;;;;7.55;4.35;;;;;;;;;;5304123;28;20362;-68
2022/03/27 00:43:00;;;;;;;9.36;4.36;;;;;;;;;;5304417;28;20297;-68
2022/03/27 00:45:31;;;;;;;10.57;5.80;;;;;;;;;;5304483;28;20213;-68
2022/03/27 00:48:02;;;;;;;8.00;3.97;;;;;;;;;;5303454;28;20020;-68
2022/03/27 00:50:33;;;;;;;6.07;3.75;;;;;;;;;;5303975;28;20084;-68
2022/03/27 00:53:04;;;;;;;5.63;3.88;;;;;;;;;;5304400;28;20034;-69
2022/03/27 00:55:36;;;;;;;8.27;3.60;;;;;;;;;;5303492;28;20271;-67
2022/03/27 00:58:08;;;;;;;6.45;4.10;;;;;;;;;;5303928;28;20020;-68
2022/03/27 01:00:41;;;;;;;8.93;4.63;;;;;;;;;;5304141;28;20074;-67
2022/03/27 01:03:14;;;;;;;9.52;4.20;;;;;;;;;;5303003;28;20059;-67
2022/03/27 01:05:45;;;;;;;7.68;4.57;;;;;;;;;;5303443;28;20093;-68
2022/03/27 01:09:35;;;;;;;6.75;4.15;;;;;;;;;;5302758;28;20096;-67
2022/03/27 01:11:10;;;;;;;8.27;4.82;;;;;;;;;;5303534;28;20360;-68
2022/03/27 01:13:42;;;;;;;6.93;4.13;;;;;;;;;;5303658;28;20023;-68
2022/03/27 01:16:15;;;;;;;10.02;5.13;;;;;;;;;;5302729;28;20116;-68
2022/03/27 01:18:46;;;;;;;7.90;4.45;;;;;;;;;;5302864;28;20031;-69
2022/03/27 01:21:17;;;;;;;8.15;4.40;;;;;;;;;;5303772;28;20371;-69
2022/03/27 01:23:49;;;;;;;7.38;4.25;;;;;;;;;;5302416;28;20814;-68
2022/03/27 01:26:20;;;;;;;8.10;5.20;;;;;;;;;;5303998;28;20254;-69
2022/03/27 01:28:51;;;;;;;8.77;4.85;;;;;;;;;;5302988;28;20051;-67
2022/03/27 01:31:22;;;;;;;9.02;5.04;;;;;;;;;;5302867;28;20043;-68
2022/03/27 01:33:54;;;;;;;8.60;4.05;;;;;;;;;;5303131;28;20471;-68
2022/03/27 01:36:28;;;;;;;5.75;3.90;;;;;;;;;;5302855;28;20023;-68
2022/03/27 01:39:00;;;;;;;7.10;5.28;;;;;;;;;;5303045;28;20016;-68
2022/03/27 01:41:31;;;;;;;6.13;4.85;;;;;;;;;;5303099;28;20035;-67
2022/03/27 01:44:04;;;;;;;7.03;4.78;;;;;;;;;;5302343;28;20374;-69
2022/03/27 01:46:39;;;;;;;9.15;5.07;;;;;;;;;;5303100;28;20020;-68
2022/03/27 01:49:11;;;;;;;7.38;5.60;;;;;;;;;;5302729;28;20379;-68
2022/03/27 01:51:43;;;;;;;8.70;5.45;;;;;;;;;;5302111;28;20360;-68
2022/03/27 01:54:14;;;;;;;10.20;5.50;;;;;;;;;;5302932;28;20019;-68
2022/03/27 01:56:45;;;;;;;7.75;5.07;;;;;;;;;;5302629;28;20024;-68
2022/03/27 01:59:19;;;;;;;8.90;5.13;;;;;;;;;;5302136;28;20028;-68
2022/03/27 02:01:50;;;;;;;7.80;5.20;;;;;;;;;;5302678;28;20012;-68
2022/03/27 02:04:21;;;;;;;9.75;5.70;;;;;;;;;;5302309;28;20081;-68
2022/03/27 02:06:52;;;;;;;7.45;5.20;;;;;;;;;;5302336;28;20149;-69
2022/03/27 02:09:23;;;;;;;9.98;5.53;;;;;;;;;;5303197;28;20266;-68
2022/03/27 02:11:55;;;;;;;9.85;5.63;;;;;;;;;;5301285;28;20121;-68
2022/03/27 02:14:26;;;;;;;7.07;5.22;;;;;;;;;;5302803;28;20024;-68
2022/03/27 02:16:57;;;;;;;9.93;6.53;;;;;;;;;;5302186;28;20063;-68
2022/03/27 02:19:28;;;;;;;8.35;6.28;;;;;;;;;;5301505;28;20043;-69
2022/03/27 02:21:59;;;;;;;8.56;5.68;;;;;;;;;;5301989;28;20490;-67
2022/03/27 02:24:30;;;;;;;12.36;6.34;;;;;;;;;;5302348;28;20023;-68
2022/03/27 02:27:02;;;;;;;9.27;6.43;;;;;;;;;;5301753;28;20034;-67
2022/03/27 02:29:33;;;;;;;9.93;6.70;;;;;;;;;;5302433;28;20024;-68
2022/03/27 02:32:04;;;;;;;8.65;6.38;;;;;;;;;;5302201;28;20200;-68
2022/03/27 02:34:36;;;;;;;8.43;5.28;;;;;;;;;;5301398;28;20346;-69
2022/03/27 02:37:07;;;;;;;13.02;7.55;;;;;;;;;;5301952;28;20024;-69
2022/03/27 02:39:39;;;;;;;13.85;7.40;;;;;;;;;;5301770;28;20085;-68
2022/03/27 02:42:10;;;;;;;11.90;8.85;;;;;;;;;;5302162;28;20425;-68
2022/03/27 02:44:41;;;;;;;12.98;8.00;;;;;;;;;;5302105;28;20475;-68
2022/03/27 02:47:12;;;;;;;11.73;8.95;;;;;;;;;;5301284;28;20012;-68
2022/03/27 02:49:44;;;;;;;16.58;12.32;;;;;;;;;;5302314;28;20024;-69
2022/03/27 02:52:16;;;;;;;19.10;14.52;;;;;;;;;;5302168;28;20024;-68
2022/03/27 02:54:47;;;;;;;21.73;13.82;;;;;;;;;;5301023;28;20091;-67
2022/03/27 02:57:18;;;;;;;18.95;13.00;;;;;;;;;;5302206;28;20488;-67
2022/03/27 02:59:52;;;;;;;22.25;14.07;;;;;;;;;;5301474;28;20262;-68
2022/03/27 03:02:23;;;;;;;20.65;14.45;;;;;;;;;;5301761;28;20024;-67
2022/03/27 03:04:55;;;;;;;27.25;15.35;;;;;;;;;;5301783;28;20032;-68
2022/03/27 03:07:26;;;;;;;22.15;15.48;;;;;;;;;;5302205;28;20028;-68
2022/03/27 03:09:57;;;;;;;22.42;15.50;;;;;;;;;;5300568;28;20027;-69
2022/03/27 03:12:28;;;;;;;27.55;16.27;;;;;;;;;;5302213;28;20032;-68
2022/03/27 03:15:00;;;;;;;22.90;17.48;;;;;;;;;;5300475;28;20098;-69
2022/03/27 03:17:31;;;;;;;20.50;16.92;;;;;;;;;;5302054;28;20408;-69
2022/03/27 03:20:02;;;;;;;19.67;15.75;;;;;;;;;;5301903;28;20099;-68
2022/03/27 03:22:34;;;;;;;26.48;16.35;;;;;;;;;;5300915;28;20027;-68
2022/03/27 03:25:07;;;;;;;17.92;14.85;;;;;;;;;;5301948;28;20706;-68
2022/03/27 03:27:38;;;;;;;21.63;15.95;;;;;;;;;;5301726;28;20038;-69
2022/03/27 03:30:10;;;;;;;18.14;15.50;;;;;;;;;;5302491;28;20069;-68
2022/03/27 03:32:42;;;;;;;18.58;14.38;;;;;;;;;;5305993;28;20039;-68
2022/03/27 03:35:13;;;;;;;19.88;15.13;;;;;;;;;;5305571;28;20013;-69
2022/03/27 03:37:45;;;;;;;19.50;15.65;;;;;;;;;;5304591;28;20020;-69
2022/03/27 03:40:16;;;;;;;22.52;16.90;;;;;;;;;;5305990;28;20043;-68
2022/03/27 03:42:47;;;;;;;20.48;16.14;;;;;;;;;;5304357;28;20030;-69
2022/03/27 03:45:18;;;;;;;21.23;16.50;;;;;;;;;;5305656;28;20016;-69
2022/03/27 03:47:49;;;;;;;20.38;16.10;;;;;;;;;;5305052;28;20311;-68
2022/03/27 03:50:21;;;;;;;22.55;17.00;;;;;;;;;;5305022;28;20386;-69
2022/03/27 03:52:52;;;;;;;21.42;16.20;;;;;;;;;;5305323;28;20306;-69
2022/03/27 03:55:23;;;;;;;20.85;16.35;;;;;;;;;;5305692;28;20407;-68
2022/03/27 03:57:56;;;;;;;20.67;16.23;;;;;;;;;;5304121;28;20062;-68
2022/03/27 04:00:28;;;;;;;19.95;15.75;;;;;;;;;;5305611;28;20281;-68
2022/03/27 04:02:59;;;;;;;21.77;16.58;;;;;;;;;;5305103;28;20012;-69
2022/03/27 04:05:30;;;;;;;19.13;15.55;;;;;;;;;;5304606;28;20011;-69
2022/03/27 04:08:01;;;;;;;21.80;17.08;;;;;;;;;;5305141;28;20054;-68
2022/03/27 04:10:32;;;;;;;20.98;15.84;;;;;;;;;;5304910;28;20039;-69
2022/03/27 04:13:03;;;;;;;23.38;17.60;;;;;;;;;;5304100;28;20428;-69
2022/03/27 04:15:35;;;;;;;21.13;17.48;;;;;;;;;;5304890;28;20085;-69
2022/03/27 04:18:06;;;;;;;21.48;16.38;;;;;;;;;;5304226;28;20066;-69
2022/03/27 04:20:40;;;;;;;21.40;16.90;;;;;;;;;;5304971;28;20020;-68
2022/03/27 04:23:11;;;;;;;23.10;16.50;;;;;;;;;;5304710;28;20518;-69
2022/03/27 04:25:42;;;;;;;22.38;17.85;;;;;;;;;;5304210;28;20095;-68
2022/03/27 04:28:13;;;;;;;20.27;17.25;;;;;;;;;;5304624;28;20028;-69
2022/03/27 04:30:45;;;;;;;20.83;16.73;;;;;;;;;;5304331;28;20024;-69
2022/03/27 04:33:16;;;;;;;22.63;16.80;;;;;;;;;;5304093;28;20070;-69
2022/03/27 04:35:47;;;;;;;22.60;17.33;;;;;;;;;;5304256;28;20081;-69
2022/03/27 04:38:19;;;;;;;21.45;17.15;;;;;;;;;;5304855;28;20016;-69
2022/03/27 04:40:50;;;;;;;20.95;18.17;;;;;;;;;;5302549;28;20028;-68
2022/03/27 04:43:25;;;;;;;21.08;17.30;;;;;;;;;;5304315;28;20458;-68
2022/03/27 04:45:56;;;;;;;19.73;17.58;;;;;;;;;;5303731;28;20104;-68
2022/03/27 04:48:29;;;;;;;21.00;17.42;;;;;;;;;;5303877;28;20031;-68
2022/03/27 04:51:00;;;;;;;20.35;18.10;;;;;;;;;;5304228;28;20314;-68
2022/03/27 04:53:31;;;;;;;22.80;17.83;;;;;;;;;;5303600;28;20050;-68
2022/03/27 04:56:02;;;;;;;22.63;19.67;;;;;;;;;;5304033;28;20020;-68
2022/03/27 04:58:34;;;;;;;22.38;19.30;;;;;;;;;;5303909;28;20020;-67
2022/03/27 05:01:05;;;;;;;24.48;19.80;;;;;;;;;;5303404;28;20111;-68
2022/03/27 05:03:37;;;;;;;29.00;19.98;;;;;;;;;;5303897;28;20027;-68
2022/03/27 05:06:08;;;;;;;21.90;19.15;;;;;;;;;;5303524;28;20808;-69
2022/03/27 05:08:39;;;;;;;25.15;19.15;;;;;;;;;;5302826;28;20020;-69
2022/03/27 05:11:10;;;;;;;22.62;19.32;;;;;;;;;;5303384;28;20419;-69
2022/03/27 05:13:41;;;;;;;27.50;20.88;;;;;;;;;;5303367;28;20031;-69
2022/03/27 05:16:13;;;;;;;22.45;18.77;;;;;;;;;;5302416;28;20112;-68
2022/03/27 05:18:44;;;;;;;25.27;20.00;;;;;;;;;;5303421;28;20020;-69
2022/03/27 05:21:15;;;;;;;21.88;18.23;;;;;;;;;;5303064;28;20254;-68
2022/03/27 05:23:47;;;;;;;28.17;21.40;;;;;;;;;;5303117;28;20023;-68
2022/03/27 05:26:18;;;;;;;24.02;19.50;;;;;;;;;;5303803;28;20035;-69
2022/03/27 05:28:49;;;;;;;30.56;23.14;;;;;;;;;;5302188;28;20274;-68
2022/03/27 05:31:21;;;;;;;24.88;21.73;;;;;;;;;;5303568;28;20073;-69
2022/03/27 05:33:52;;;;;;;36.65;23.25;;;;;;;;;;5302818;28;20266;-68
2022/03/27 05:36:23;;;;;;;32.15;22.52;;;;;;;;;;5302807;28;20066;-68
2022/03/27 05:38:55;;;;;;;28.67;23.17;;;;;;;;;;5302875;28;20020;-68
2022/03/27 05:41:28;;;;;;;35.30;24.70;;;;;;;;;;5303447;28;20020;-68
2022/03/27 05:43:59;;;;;;;32.22;23.30;;;;;;;;;;5301874;28;20081;-68
2022/03/27 05:46:30;;;;;;;37.78;26.15;;;;;;;;;;5302945;28;20024;-68
2022/03/27 05:49:01;;;;;;;38.58;26.65;;;;;;;;;;5303244;28;20270;-69
2022/03/27 05:51:33;;;;;;;34.55;24.55;;;;;;;;;;5301951;28;20036;-68
2022/03/27 05:54:04;;;;;;;34.33;23.73;;;;;;;;;;5302472;28;20462;-69
2022/03/27 05:56:35;;;;;;;32.53;23.75;;;;;;;;;;5302285;28;20856;-69
2022/03/27 05:59:06;;;;;;;30.72;22.36;;;;;;;;;;5302679;28;20024;-69
2022/03/27 06:01:37;;;;;;;28.30;22.64;;;;;;;;;;5302842;28;20016;-68
2022/03/27 06:04:08;;;;;;;27.48;21.77;;;;;;;;;;5301990;28;20070;-69
2022/03/27 06:06:39;;;;;;;25.55;19.70;;;;;;;;;;5302681;28;20771;-68
2022/03/27 06:09:10;;;;;;;26.02;18.88;;;;;;;;;;5302608;28;20297;-69
2022/03/27 06:11:42;;;;;;;24.20;18.40;;;;;;;;;;5301785;28;20032;-69
2022/03/27 06:14:13;;;;;;;24.94;18.00;;;;;;;;;;5302762;28;20307;-68
2022/03/27 06:16:44;;;;;;;25.77;17.42;;;;;;;;;;5301901;28;20043;-67
2022/03/27 06:19:15;;;;;;;22.77;17.20;;;;;;;;;;5301698;28;20265;-68
2022/03/27 06:21:46;;;;;;;25.02;16.74;;;;;;;;;;5301888;28;20274;-68
2022/03/27 06:24:18;;;;;;;25.88;17.90;;;;;;;;;;5303022;28;20103;-69
2022/03/27 06:26:49;;;;;;;25.33;16.92;;;;;;;;;;5301459;28;20116;-69
2022/03/27 06:29:21;;;;;;;25.16;16.28;;;;;;;;;;5302446;28;20053;-67
2022/03/27 06:31:52;;;;;;;31.77;17.60;;;;;;;;;;5301128;28;20111;-68
2022/03/27 06:34:26;;;;;;;31.77;19.17;;;;;;;;;;5302608;28;20130;-68
2022/03/27 06:36:57;;;;;;;32.88;20.10;;;;;;;;;;5302044;28;20300;-68
2022/03/27 06:39:28;;;;;;;28.60;18.88;;;;;;;;;;5301684;28;20024;-68
2022/03/27 06:41:59;;;;;;;29.75;19.60;;;;;;;;;;5301774;28;20632;-68
2022/03/27 06:44:31;;;;;;;29.60;19.45;;;;;;;;;;5302131;28;20044;-68
2022/03/27 06:47:04;;;;;;;27.30;18.88;;;;;;;;;;5301145;28;20035;-68
2022/03/27 06:49:35;;;;;;;31.42;19.33;;;;;;;;;;5302071;28;20024;-68
2022/03/27 06:52:06;;;;;;;31.17;20.17;;;;;;;;;;5302093;28;20487;-68
2022/03/27 06:54:37;;;;;;;32.78;20.20;;;;;;;;;;5301245;28;20016;-68
2022/03/27 06:57:09;;;;;;;36.05;21.90;;;;;;;;;;5302051;28;20016;-69
2022/03/27 07:05:22;;;;;;;34.63;20.48;;;;;;;;;;5304117;28;20064;-68
2022/03/27 07:07:53;;;;;;;33.88;20.77;;;;;;;;;;5304707;28;20019;-69
2022/03/27 07:10:25;;;;;;;36.33;22.58;;;;;;;;;;5306401;28;20451;-68
2022/03/27 07:12:57;;;;;;;36.97;22.00;;;;;;;;;;5305953;28;20016;-68
2022/03/27 07:15:28;;;;;;;32.12;20.10;;;;;;;;;;5305097;28;20551;-67
2022/03/27 07:17:59;;;;;;;35.00;21.33;;;;;;;;;;5305327;28;20403;-68
2022/03/27 07:20:32;;;;;;;37.35;21.20;;;;;;;;;;5305427;28;20099;-68
2022/03/27 07:23:04;;;;;;;39.80;21.63;;;;;;;;;;5304830;28;20111;-68
2022/03/27 07:25:36;;;;;;;36.45;21.83;;;;;;;;;;5305641;28;20077;-69
2022/03/27 07:28:08;;;;;;;38.45;22.83;;;;;;;;;;5304987;28;20020;-68
2022/03/27 07:30:41;;;;;;;43.75;24.85;;;;;;;;;;5304965;28;20423;-67
2022/03/27 07:33:12;;;;;;;42.53;25.92;;;;;;;;;;5305916;28;20103;-68
2022/03/27 07:35:44;;;;;;;44.85;26.77;;;;;;;;;;5304687;28;20160;-69
2022/03/27 07:38:16;;;;;;;45.28;27.45;;;;;;;;;;5305832;28;20084;-68
2022/03/27 07:40:47;;;;;;;45.45;26.33;;;;;;;;;;5305210;28;20016;-69
2022/03/27 07:43:19;;;;;;;38.05;23.15;;;;;;;;;;5304231;28;20020;-69
2022/03/27 07:45:50;;;;;;;44.42;25.16;;;;;;;;;;5305287;28;20149;-69
2022/03/27 07:48:21;;;;;;;45.95;27.13;;;;;;;;;;5305249;28;20024;-69
2022/03/27 07:50:56;;;;;;;41.95;24.80;;;;;;;;;;5304269;28;20118;-69
2022/03/27 07:53:27;;;;;;;43.05;23.08;;;;;;;;;;5305192;28;20266;-69
2022/03/27 07:55:58;;;;;;;41.47;25.25;;;;;;;;;;5304366;28;20459;-69
2022/03/27 07:58:29;;;;;;;36.82;22.84;;;;;;;;;;5305280;28;20024;-69
2022/03/27 08:01:01;;;;;;;37.50;22.05;;;;;;;;;;5305068;28;20169;-70
2022/03/27 08:03:33;;;;;;;35.55;21.52;;;;;;;;;;5304526;28;20095;-70
2022/03/27 08:06:05;;;;;;;33.58;19.70;;;;;;;;;;5305090;28;20430;-70
2022/03/27 08:08:36;;;;;;;36.10;21.67;;;;;;;;;;5305114;28;20016;-70
2022/03/27 08:11:07;;;;;;;33.53;20.73;;;;;;;;;;5304084;28;20032;-70
2022/03/27 08:13:38;;;;;;;34.97;21.88;;;;;;;;;;5304807;28;20425;-69
2022/03/27 08:16:10;;;;;;;38.17;24.35;;;;;;;;;;5304261;28;20051;-68
2022/03/27 08:18:43;;;;;;;35.58;22.48;;;;;;;;;;5303941;28;20012;-68
2022/03/27 08:21:14;;;;;;;37.67;22.98;;;;;;;;;;5304892;28;20027;-69
2022/03/27 08:23:45;;;;;;;33.47;22.80;;;;;;;;;;5304574;28;20347;-69
2022/03/27 08:29:06;;;;;;;36.35;22.35;;;;;;;;;;5304856;28;20262;-69
2022/03/27 08:31:37;;;;;;;38.88;21.65;;;;;;;;;;5303999;28;20016;-69
2022/03/27 08:34:09;;;;;;;31.42;20.75;;;;;;;;;;5304304;28;20016;-69
2022/03/27 08:36:40;;;;;;;32.40;20.95;;;;;;;;;;5304486;28;20462;-68
2022/03/27 08:39:11;;;;;;;32.00;20.20;;;;;;;;;;5303562;28;20016;-69
2022/03/27 08:41:43;;;;;;;35.42;22.15;;;;;;;;;;5304616;28;20274;-69
2022/03/27 08:44:18;;;;;;;40.85;23.30;;;;;;;;;;5304443;28;20035;-69
2022/03/27 08:46:50;;;;;;;39.70;23.75;;;;;;;;;;5303189;28;20467;-68
2022/03/27 08:49:24;;;;;;;35.67;22.55;;;;;;;;;;5304503;28;20027;-68
2022/03/27 08:52:04;;;;;;;34.28;23.60;;;;;;;;;;5303537;28;20072;-69
2022/03/27 08:54:40;;;;;;;33.47;22.23;;;;;;;;;;5302703;28;20028;-69
2022/03/27 08:57:26;;;;;;;34.10;21.10;;;;;;;;;;5303942;28;20012;-68
2022/03/27 08:59:57;;;;;;;32.35;21.85;;;;;;;;;;5302978;28;20051;-69
2022/03/27 09:02:28;;;;;;;33.65;22.17;;;;;;;;;;5304424;28;20051;-70
2022/03/27 09:05:02;;;;;;;33.12;23.00;;;;;;;;;;5304015;28;20024;-70
2022/03/27 09:07:33;;;;;;;34.45;21.80;;;;;;;;;;5303456;28;20063;-69
2022/03/27 09:10:06;;;;;;;31.48;22.33;;;;;;;;;;5303283;28;20426;-69
2022/03/27 09:12:38;;;;;;;31.02;21.88;;;;;;;;;;5302946;28;20056;-69
2022/03/27 09:15:09;;;;;;;27.33;20.05;;;;;;;;;;5302204;28;20087;-68
2022/03/27 09:17:59;;;;;;;27.38;18.92;;;;;;;;;;5303915;28;20024;-69
2022/03/27 09:20:32;;;;;;;21.63;15.27;;;;;;;;;;5303108;28;20107;-69
2022/03/27 09:23:14;;;;;;;16.33;12.95;;;;;;;;;;5303769;28;20008;-70
2022/03/27 09:25:47;;;;;;;19.52;14.07;;;;;;;;;;5303544;28;20081;-69
2022/03/27 09:28:29;;;;;;;22.02;16.50;;;;;;;;;;5302372;28;20039;-69
2022/03/27 09:31:02;;;;;;;25.05;15.35;;;;;;;;;;5303247;28;20028;-69
2022/03/27 09:33:34;;;;;;;20.58;13.80;;;;;;;;;;5303874;28;20128;-70
2022/03/27 09:36:05;;;;;;;21.85;15.55;;;;;;;;;;5302859;28;20147;-70
2022/03/27 09:38:37;;;;;;;22.92;15.63;;;;;;;;;;5303535;28;20024;-70
2022/03/27 09:41:28;;;;;;;22.33;15.68;;;;;;;;;;5303442;28;20051;-69
2022/03/27 09:44:01;;;;;;;21.10;15.52;;;;;;;;;;5302746;28;20050;-70
2022/03/27 09:46:45;;;;;;;23.52;16.35;;;;;;;;;;5303663;28;20032;-71
2022/03/27 09:49:21;;;;;;;24.15;16.40;;;;;;;;;;5302688;28;20087;-70
2022/03/27 09:51:53;;;;;;;24.67;16.63;;;;;;;;;;5302654;28;20134;-70
2022/03/27 09:54:25;;;;;;;22.00;15.32;;;;;;;;;;5303317;28;20020;-70
2022/03/27 09:56:56;;;;;;;21.05;15.52;;;;;;;;;;5302080;28;20038;-70
2022/03/27 09:59:32;;;;;;;26.30;16.85;;;;;;;;;;5303469;28;20020;-69
2022/03/27 10:02:19;;;;;;;26.77;18.02;;;;;;;;;;5302724;28;20297;-69
2022/03/27 10:04:51;;;;;;;25.42;16.63;;;;;;;;;;5301806;28;20032;-69
2022/03/27 10:07:24;;;;;;;25.48;18.63;;;;;;;;;;5303116;28;20403;-69
2022/03/27 10:09:55;;;;;;;25.63;17.30;;;;;;;;;;5301875;28;20023;-69
2022/03/27 10:12:28;;;;;;;25.13;17.15;;;;;;;;;;5303020;28;20028;-71
2022/03/27 10:15:02;;;;;;;23.95;17.08;;;;;;;;;;5302002;28;20371;-68
2022/03/27 10:17:35;;;;;;;18.38;14.98;;;;;;;;;;5301582;28;20463;-68
2022/03/27 10:20:10;;;;;;;19.95;15.35;;;;;;;;;;5302807;28;20016;-69
2022/03/27 10:22:42;;;;;;;23.80;16.45;;;;;;;;;;5302597;28;20026;-68
2022/03/27 10:25:15;;;;;;;22.45;16.08;;;;;;;;;;5301865;28;20020;-69
2022/03/27 10:27:47;;;;;;;23.65;15.30;;;;;;;;;;5302170;28;20024;-69
2022/03/27 10:30:18;;;;;;;17.70;14.00;;;;;;;;;;5302998;28;20154;-69
2022/03/27 10:32:49;;;;;;;19.70;14.65;;;;;;;;;;5301406;28;20099;-69
2022/03/27 10:35:45;;;;;;;20.50;14.55;;;;;;;;;;5302897;28;20024;-68
2022/03/27 10:38:19;;;;;;;17.58;14.43;;;;;;;;;;5301805;28;20024;-68
2022/03/27 10:40:56;;;;;;;22.02;15.48;;;;;;;;;;5301834;28;20020;-68
2022/03/27 10:43:27;;;;;;;20.08;15.38;;;;;;;;;;5302649;28;20023;-68
2022/03/27 10:46:10;;;;;;;20.60;14.70;;;;;;;;;;5300963;28;20024;-69
2022/03/27 10:48:42;;;;;;;16.63;14.43;;;;;;;;;;5302033;28;20074;-68
2022/03/27 10:51:25;;;;;;;18.77;13.98;;;;;;;;;;5301727;28;20409;-68
2022/03/27 10:54:04;;;;;;;15.60;13.95;;;;;;;;;;5300844;28;20028;-68
2022/03/27 10:56:37;;;;;;;19.45;14.95;;;;;;;;;;5302122;28;20466;-69
2022/03/27 10:59:09;;;;;;;16.75;14.18;;;;;;;;;;5301024;28;20027;-69
2022/03/27 11:01:44;;;;;;;17.20;14.27;;;;;;;;;;5301855;28;20020;-69
2022/03/27 11:04:19;;;;;;;18.95;14.23;;;;;;;;;;5302070;28;20036;-68
2022/03/27 11:07:13;;;;;;;17.30;14.35;;;;;;;;;;5300789;28;20020;-68
2022/03/27 11:09:45;;;;;;;21.88;15.02;;;;;;;;;;5301159;28;20519;-68
2022/03/27 11:12:22;;;;;;;17.77;15.77;;;;;;;;;;5302060;28;20115;-68
2022/03/27 11:14:54;;;;;;;19.58;15.25;;;;;;;;;;5300429;28;20086;-69
2022/03/27 11:17:30;;;;;;;19.52;16.40;;;;;;;;;;5301911;28;20538;-68
2022/03/27 11:20:06;;;;;;;18.85;15.57;;;;;;;;;;5300685;28;20470;-68
2022/03/27 11:22:56;;;;;;;19.55;15.75;;;;;;;;;;5301624;28;20016;-70
2022/03/27 11:25:31;;;;;;;18.75;15.35;;;;;;;;;;5302024;28;20081;-68
2022/03/27 11:28:02;;;;;;;21.20;15.18;;;;;;;;;;5300695;28;20565;-69
2022/03/27 11:30:35;;;;;;;17.50;15.68;;;;;;;;;;5300796;28;20111;-68
2022/03/27 11:33:25;;;;;;;17.58;14.70;;;;;;;;;;5301722;28;20274;-69
2022/03/27 11:36:02;;;;;;;18.48;14.77;;;;;;;;;;5300291;28;20031;-69
2022/03/27 11:38:54;;;;;;;15.98;13.75;;;;;;;;;;5300798;28;20386;-68
2022/03/27 11:41:44;;;;;;;17.77;14.65;;;;;;;;;;5300994;28;20057;-69
2022/03/27 11:44:16;;;;;;;17.85;14.52;;;;;;;;;;5301785;28;20078;-68
2022/03/27 11:46:48;;;;;;;17.25;14.43;;;;;;;;;;5300917;28;20016;-69
2022/03/27 11:49:20;;;;;;;16.27;14.57;;;;;;;;;;5300585;28;20031;-69
2022/03/27 11:52:05;;;;;;;15.50;13.52;;;;;;;;;;5303665;28;20489;-69
2022/03/27 11:54:37;;;;;;;15.30;13.80;;;;;;;;;;5305182;28;20054;-70
2022/03/27 11:57:09;;;;;;;16.20;13.38;;;;;;;;;;5304698;28;20042;-70
2022/03/27 11:59:47;;;;;;;17.00;14.80;;;;;;;;;;5304449;28;20013;-70
2022/03/27 12:02:19;;;;;;;20.27;14.40;;;;;;;;;;5304326;28;20054;-70
2022/03/27 12:04:54;;;;;;;16.15;13.57;;;;;;;;;;5305031;28;20016;-70
2022/03/27 12:07:26;;;;;;;16.08;13.77;;;;;;;;;;5305490;28;20099;-69
2022/03/27 12:09:58;;;;;;;14.75;12.27;;;;;;;;;;5303931;28;20084;-70
2022/03/27 12:12:32;;;;;;;14.90;13.15;;;;;;;;;;5305027;28;20024;-70
2022/03/27 12:15:08;;;;;;;15.07;13.18;;;;;;;;;;5305022;28;20056;-69
2022/03/27 12:17:44;;;;;;;12.23;10.95;;;;;;;;;;5304216;28;20054;-70
2022/03/27 12:20:15;;;;;;;12.55;10.18;;;;;;;;;;5305568;28;20016;-70
2022/03/27 12:22:49;;;;;;;12.02;10.43;;;;;;;;;;5304362;28;20030;-70
2022/03/27 12:25:21;;;;;;;13.07;10.88;;;;;;;;;;5304403;28;20055;-70
2022/03/27 12:30:53;;;;;;;12.63;11.30;;;;;;;;;;5303936;28;20028;-69
2022/03/27 12:33:24;;;;;;;12.13;10.48;;;;;;;;;;5305163;28;20012;-69
2022/03/27 12:36:05;;;;;;;12.60;10.93;;;;;;;;;;5304556;28;20027;-69
2022/03/27 12:38:37;;;;;;;11.85;10.65;;;;;;;;;;5303602;28;20016;-69
2022/03/27 12:41:10;;;;;;;11.20;10.05;;;;;;;;;;5304484;28;20379;-69
2022/03/27 12:43:57;;;;;;;10.98;9.60;;;;;;;;;;5304675;28;20133;-69
2022/03/27 12:46:28;;;;;;;11.30;10.15;;;;;;;;;;5304085;28;20039;-70
2022/03/27 12:49:06;;;;;;;12.18;9.95;;;;;;;;;;5304037;28;20039;-69
2022/03/27 12:51:38;;;;;;;11.03;9.93;;;;;;;;;;5303656;28;20043;-69
2022/03/27 12:54:10;;;;;;;12.45;9.65;;;;;;;;;;5304473;28;20733;-69
2022/03/27 12:56:57;;;;;;;10.93;9.82;;;;;;;;;;5304173;28;20012;-69
2022/03/27 12:59:28;;;;;;;10.57;9.13;;;;;;;;;;5303520;28;20024;-69
2022/03/27 13:01:59;;;;;;;10.65;9.65;;;;;;;;;;5302317;28;20471;-68
2022/03/27 13:04:30;;;;;;;9.10;8.13;;;;;;;;;;5303918;28;20262;-68
2022/03/27 13:07:03;;;;;;;8.75;7.40;;;;;;;;;;5303145;28;20069;-69
2022/03/27 13:09:35;;;;;;;12.35;9.23;;;;;;;;;;5303901;28;20031;-69
2022/03/27 13:12:11;;;;;;;8.43;7.32;;;;;;;;;;5303826;28;20028;-69
2022/03/27 13:14:43;;;;;;;10.10;6.70;;;;;;;;;;5303072;28;20054;-68
2022/03/27 13:17:14;;;;;;;7.80;5.95;;;;;;;;;;5304073;28;20459;-69
2022/03/27 13:19:45;;;;;;;6.40;5.35;;;;;;;;;;5302455;28;20039;-69
2022/03/27 13:22:18;;;;;;;5.70;5.10;;;;;;;;;;5303830;28;20019;-68
2022/03/27 13:24:50;;;;;;;8.77;7.65;;;;;;;;;;5303069;28;20117;-68
2022/03/27 13:27:21;;;;;;;10.48;6.57;;;;;;;;;;5310844;28;20045;-67
2022/03/27 13:29:52;;;;;;;7.43;6.30;;;;;;;;;;5312618;28;20514;-68
2022/03/27 13:32:23;;;;;;;6.75;5.43;;;;;;;;;;5303647;28;20031;-68
2022/03/27 13:34:54;;;;;;;5.43;4.93;;;;;;;;;;5302484;28;20262;-68
2022/03/27 13:37:25;;;;;;;5.18;4.30;;;;;;;;;;5303566;28;20363;-69
2022/03/27 13:39:57;;;;;;;8.23;4.40;;;;;;;;;;5303217;28;20265;-69
2022/03/27 13:45:18;;;;;;;5.72;4.18;;;;;;;;;;5303494;28;20254;-68
2022/03/27 13:47:49;;;;;;;6.80;4.90;;;;;;;;;;5301896;28;20023;-69
2022/03/27 13:50:21;;;;;;;5.22;4.55;;;;;;;;;;5303573;28;20398;-68
2022/03/27 13:52:52;;;;;;;7.78;5.38;;;;;;;;;;5302617;28;20070;-68
2022/03/27 13:55:24;;;;;;;11.45;5.93;;;;;;;;;;5302666;28;20383;-68
2022/03/27 13:57:55;;;;;;;7.80;4.75;;;;;;;;;;5302636;28;20060;-68
2022/03/27 14:00:26;;;;;;;4.68;4.25;;;;;;;;;;5303355;28;20012;-68
2022/03/27 14:02:57;;;;;;;5.50;4.05;;;;;;;;;;5302005;28;20539;-69
2022/03/27 14:05:29;;;;;;;6.95;4.38;;;;;;;;;;5303217;28;20411;-68
2022/03/27 14:08:01;;;;;;;5.80;4.03;;;;;;;;;;5302341;28;20031;-69
2022/03/27 14:10:32;;;;;;;6.40;4.20;;;;;;;;;;5301436;28;20225;-68
2022/03/27 14:13:04;;;;;;;7.15;3.92;;;;;;;;;;5302898;28;20031;-68
2022/03/27 14:15:37;;;;;;;5.83;4.67;;;;;;;;;;5302317;28;20278;-68
2022/03/27 14:18:08;;;;;;;6.30;4.65;;;;;;;;;;5302036;28;20768;-68
2022/03/27 14:20:41;;;;;;;7.72;4.75;;;;;;;;;;5302689;28;20019;-68
2022/03/27 14:23:12;;;;;;;5.28;4.35;;;;;;;;;;5301797;28;20024;-66
2022/03/27 14:25:43;;;;;;;6.40;5.07;;;;;;;;;;5301725;28;20027;-67
2022/03/27 14:28:15;;;;;;;6.47;5.10;;;;;;;;;;5302134;28;20277;-67
2022/03/27 14:30:46;;;;;;;5.07;4.47;;;;;;;;;;5300966;28;20028;-67
2022/03/27 14:33:17;;;;;;;5.60;3.90;;;;;;;;;;5302367;28;20270;-67
2022/03/27 14:35:48;;;;;;;8.17;4.50;;;;;;;;;;5301660;28;20766;-69
2022/03/27 14:38:20;;;;;;;5.63;3.85;;;;;;;;;;5301915;28;20262;-68
2022/03/27 14:40:51;;;;;;;9.93;4.57;;;;;;;;;;5301607;28;20023;-67
2022/03/27 14:43:23;;;;;;;5.70;4.72;;;;;;;;;;5302145;28;20077;-68
2022/03/27 14:45:54;;;;;;;7.90;4.95;;;;;;;;;;5301088;28;20027;-69
2022/03/27 14:48:25;;;;;;;6.80;4.45;;;;;;;;;;5302509;28;20520;-68
2022/03/27 14:51:00;;;;;;;6.00;4.23;;;;;;;;;;5300288;28;20790;-69
2022/03/27 14:55:57;;;;;;;8.35;4.18;;;;;;;;;;5302067;28;20724;-67
2022/03/27 14:56:23;;;;;;;6.63;4.45;;;;;;;;;;5302063;28;20077;-69
2022/03/27 14:58:54;;;;;;;7.28;5.03;;;;;;;;;;5300930;28;20020;-68
2022/03/27 15:01:25;;;;;;;6.03;3.77;;;;;;;;;;5302350;28;20034;-68
2022/03/27 15:03:57;;;;;;;5.60;4.68;;;;;;;;;;5301579;28;20262;-68
2022/03/27 15:06:28;;;;;;;7.47;5.18;;;;;;;;;;5301380;28;20051;-68
2022/03/27 15:08:59;;;;;;;9.02;4.80;;;;;;;;;;5301535;28;20410;-68
2022/03/27 15:11:30;;;;;;;6.85;4.38;;;;;;;;;;5301971;28;20077;-68